createdAt,value
2023-01-21T00:00:35.713Z,101857.91
2023-01-21T00:03:04.021Z,101864.63
2023-01-21T00:05:32.616Z,101866.97
2023-01-21T00:08:02.645Z,101874.50
2023-01-21T00:10:33.517Z,101868.25
2023-01-21T00:13:02.783Z,101872.00
2023-01-21T00:15:32.911Z,101864.50
2023-01-21T00:18:02.808Z,101860.09
2023-01-21T00:20:32.917Z,101868.88
2023-01-21T00:23:02.755Z,101862.81
2023-01-21T00:25:32.626Z,101873.69
2023-01-21T00:28:02.546Z,101881.03
2023-01-21T00:30:33.832Z,101872.44
2023-01-21T00:33:05.661Z,101885.19
2023-01-21T00:35:32.962Z,101882.91
2023-01-21T00:38:02.598Z,101891.28
2023-01-21T00:40:32.384Z,101883.75
2023-01-21T00:43:02.203Z,101894.84
2023-01-21T00:45:31.873Z,101907.81
2023-01-21T00:48:02.063Z,101899.66
2023-01-21T00:50:31.362Z,101902.41
2023-01-21T00:53:01.151Z,101903.00
2023-01-21T00:55:30.880Z,101911.78
2023-01-21T00:58:00.669Z,101909.31
2023-01-21T01:00:30.791Z,101912.84
2023-01-21T01:03:00.571Z,101916.63
2023-01-21T01:05:30.446Z,101918.50
2023-01-21T01:08:00.187Z,101920.19
2023-01-21T01:10:29.986Z,101921.44
2023-01-21T01:13:01.900Z,101925.41
2023-01-21T01:15:31.955Z,101927.28
2023-01-21T01:18:01.641Z,101933.97
2023-01-21T01:20:31.584Z,101935.66
2023-01-21T01:23:01.341Z,101938.59
2023-01-21T01:25:31.162Z,101945.47
2023-01-21T01:28:01.123Z,101953.22
2023-01-21T01:30:31.903Z,101951.16
2023-01-21T01:33:03.167Z,101945.28
2023-01-21T01:35:33.312Z,101947.78
2023-01-21T01:38:07.948Z,101939.41
2023-01-21T01:40:38.000Z,101935.00
2023-01-21T01:43:27.531Z,101951.13
2023-01-21T01:45:57.623Z,101950.69
2023-01-21T01:48:32.787Z,101956.13
2023-01-21T01:51:09.595Z,101952.59
2023-01-21T01:53:47.576Z,101957.19
2023-01-21T01:56:17.870Z,101955.50
2023-01-21T01:58:49.656Z,101957.22
2023-01-21T02:01:20.215Z,101953.66
2023-01-21T02:03:59.597Z,101961.56
2023-01-21T02:06:29.724Z,101953.00
2023-01-21T02:08:59.819Z,101967.66
2023-01-21T02:11:29.853Z,101965.53
2023-01-21T02:14:00.414Z,101965.34
2023-01-21T02:17:07.860Z,101963.22
2023-01-21T02:20:26.866Z,101964.28
2023-01-21T02:24:01.636Z,101959.22
2023-01-21T02:27:01.456Z,101963.22
2023-01-21T02:30:19.724Z,101968.47
2023-01-21T02:33:19.698Z,101964.28
2023-01-21T02:36:23.174Z,101969.72
2023-01-21T02:39:12.520Z,101972.84
2023-01-21T02:42:07.808Z,101974.31
2023-01-21T02:45:16.308Z,101971.13
2023-01-21T02:48:42.951Z,101981.19
2023-01-21T02:51:13.706Z,101973.66
2023-01-21T02:53:43.786Z,101975.31
2023-01-21T02:56:24.177Z,101968.00
2023-01-21T02:59:05.023Z,101961.28
2023-01-21T03:01:34.969Z,101961.69
2023-01-21T03:04:48.280Z,101965.00
2023-01-21T03:07:45.201Z,101972.97
2023-01-21T03:10:43.475Z,101983.06
2023-01-21T03:13:50.748Z,101984.09
2023-01-21T03:16:51.693Z,101997.25
2023-01-21T03:19:42.361Z,102001.25
2023-01-21T03:22:23.712Z,101998.53
2023-01-21T03:24:59.909Z,101994.97
2023-01-21T03:27:37.153Z,101992.25
2023-01-21T03:30:19.551Z,101990.56
2023-01-21T03:32:55.834Z,101988.06
2023-01-21T03:35:36.924Z,101986.59
2023-01-21T03:38:32.396Z,101989.94
2023-01-21T03:41:19.678Z,101988.06
2023-01-21T03:43:51.922Z,101985.72
2023-01-21T03:47:06.724Z,101977.13
2023-01-21T03:49:58.545Z,101976.06
2023-01-21T03:52:29.746Z,101977.75
2023-01-21T03:55:00.480Z,101974.41
2023-01-21T03:57:30.608Z,101975.03
2023-01-21T04:00:00.673Z,101958.91
2023-01-21T04:02:30.713Z,101967.69
2023-01-21T04:05:00.805Z,101965.59
2023-01-21T04:07:30.960Z,101978.34
2023-01-21T04:10:01.100Z,101975.19
2023-01-21T04:12:31.260Z,101973.31
2023-01-21T04:14:59.567Z,101969.75
2023-01-21T04:17:28.421Z,101974.78
2023-01-21T04:19:56.407Z,101975.16
2023-01-21T04:22:24.852Z,101976.00
2023-01-21T04:24:53.199Z,101975.16
2023-01-21T04:27:21.646Z,101977.25
2023-01-21T04:29:50.084Z,101988.13
2023-01-21T04:32:18.487Z,101986.66
2023-01-21T04:34:46.891Z,101982.03
2023-01-21T04:37:15.338Z,101990.00
2023-01-21T04:39:43.742Z,101988.16
2023-01-21T04:42:18.294Z,101986.50
2023-01-21T04:44:48.306Z,101994.06
2023-01-21T04:47:18.364Z,101993.00
2023-01-21T04:49:48.877Z,101990.50
2023-01-21T04:52:18.911Z,101994.66
2023-01-21T04:54:48.926Z,101995.94
2023-01-21T04:57:18.957Z,101988.81
2023-01-21T04:59:48.983Z,102000.28
2023-01-21T05:02:19.124Z,101999.50
2023-01-21T05:04:49.143Z,101996.78
2023-01-21T05:07:21.505Z,102002.66
2023-01-21T05:09:51.881Z,102009.56
2023-01-21T05:12:22.218Z,102009.94
2023-01-21T05:14:57.824Z,102019.19
2023-01-21T05:17:27.844Z,102016.84
2023-01-21T05:19:57.860Z,102020.22
2023-01-21T05:22:27.913Z,102021.72
2023-01-21T05:24:59.621Z,102016.66
2023-01-21T05:27:29.642Z,102011.88
2023-01-21T05:29:59.646Z,102014.59
2023-01-21T05:32:29.707Z,102020.88
2023-01-21T05:34:59.694Z,102024.22
2023-01-21T05:37:29.727Z,102017.94
2023-01-21T05:39:59.713Z,102033.47
2023-01-21T05:42:29.680Z,102032.59
2023-01-21T05:45:01.522Z,102040.16
2023-01-21T05:47:31.559Z,102039.72
2023-01-21T05:50:01.568Z,102042.66
2023-01-21T05:52:31.661Z,102036.78
2023-01-21T05:55:02.973Z,102046.63
2023-01-21T05:57:34.126Z,102036.69
2023-01-21T06:00:06.059Z,102043.22
2023-01-21T06:02:36.140Z,102040.66
2023-01-21T06:05:07.124Z,102050.50
2023-01-21T06:07:37.129Z,102042.53
2023-01-21T06:10:08.490Z,102045.50
2023-01-21T06:12:35.663Z,102038.59
2023-01-21T06:15:04.615Z,102037.94
2023-01-21T06:17:32.362Z,102041.72
2023-01-21T06:20:00.826Z,102046.09
2023-01-21T06:22:29.223Z,102046.97
2023-01-21T06:24:57.803Z,102061.19
2023-01-21T06:27:26.259Z,102065.81
2023-01-21T06:29:54.707Z,102066.25
2023-01-21T06:32:23.164Z,102061.22
2023-01-21T06:34:51.597Z,102062.91
2023-01-21T06:37:20.022Z,102065.00
2023-01-21T06:39:48.446Z,102054.75
2023-01-21T06:42:18.053Z,102063.31
2023-01-21T06:44:46.575Z,102069.38
2023-01-21T06:47:14.940Z,102070.84
2023-01-21T06:49:42.271Z,102076.34
2023-01-21T06:52:10.631Z,102072.38
2023-01-21T06:54:39.090Z,102070.88
2023-01-21T06:57:07.378Z,102074.84
2023-01-21T06:59:35.840Z,102077.38
2023-01-21T07:02:04.402Z,102070.44
2023-01-21T07:04:33.149Z,102084.50
2023-01-21T07:07:01.215Z,102078.59
2023-01-21T07:09:29.569Z,102081.16
2023-01-21T07:11:58.689Z,102080.75
2023-01-21T07:14:26.641Z,102074.03
2023-01-21T07:16:55.180Z,102080.91
2023-01-21T07:19:23.561Z,102076.53
2023-01-21T07:21:51.786Z,102074.03
2023-01-21T07:24:20.955Z,102073.84
2023-01-21T07:26:48.865Z,102082.00
2023-01-21T07:29:17.189Z,102087.03
2023-01-21T07:31:45.575Z,102084.72
2023-01-21T07:34:14.324Z,102083.88
2023-01-21T07:36:42.420Z,102092.50
2023-01-21T07:39:10.985Z,102100.22
2023-01-21T07:41:39.487Z,102102.97
2023-01-21T07:44:09.490Z,102106.69
2023-01-21T07:46:39.525Z,102106.69
2023-01-21T07:49:07.641Z,102108.38
2023-01-21T07:51:36.156Z,102105.47
2023-01-21T07:54:04.852Z,102114.03
2023-01-21T07:56:32.908Z,102112.13
2023-01-21T07:59:01.326Z,102114.53
2023-01-21T08:01:31.738Z,102113.34
2023-01-21T08:04:01.956Z,102103.25
2023-01-21T08:06:32.067Z,102101.16
2023-01-21T08:09:02.180Z,102107.88
2023-01-21T08:11:32.296Z,102103.47
2023-01-21T08:14:02.471Z,102107.03
2023-01-21T08:16:32.692Z,102095.63
2023-01-21T08:19:02.876Z,102105.72
2023-01-21T08:21:32.920Z,102102.19
2023-01-21T08:24:03.234Z,102111.38
2023-01-21T08:26:33.394Z,102108.47
2023-01-21T08:29:03.713Z,102122.31
2023-01-21T08:31:31.990Z,102118.56
2023-01-21T08:34:00.904Z,102125.88
2023-01-21T08:36:29.207Z,102120.88
2023-01-21T08:39:06.481Z,102119.16
2023-01-21T08:41:36.729Z,102114.09
2023-01-21T08:44:08.152Z,102110.72
2023-01-21T08:46:38.232Z,102116.78
2023-01-21T08:53:41.572Z,102112.72
2023-01-21T08:56:11.653Z,102118.13
2023-01-21T08:58:41.857Z,102118.31
2023-01-21T09:01:15.635Z,102114.38
2023-01-21T09:03:45.711Z,102110.97
2023-01-21T09:06:15.917Z,102105.91
2023-01-21T09:08:46.028Z,102114.94
2023-01-21T09:11:16.841Z,102115.56
2023-01-21T09:13:47.371Z,102110.09
2023-01-21T09:16:23.132Z,102113.66
2023-01-21T09:18:53.306Z,102106.75
2023-01-21T09:21:24.576Z,102114.84
2023-01-21T09:23:54.857Z,102116.56
2023-01-21T09:26:25.561Z,102116.13
2023-01-21T09:29:02.069Z,102115.56
2023-01-21T09:31:32.411Z,102105.56
2023-01-21T09:34:05.574Z,102109.06
2023-01-21T09:36:35.873Z,102118.69
2023-01-21T09:39:07.427Z,102114.66
2023-01-21T09:41:47.478Z,102122.25
2023-01-21T09:44:51.219Z,102118.78
2023-01-21T09:47:40.176Z,102114.06
2023-01-21T09:50:20.587Z,102131.69
2023-01-21T09:52:55.430Z,102111.88
2023-01-21T09:55:43.501Z,102117.97
2023-01-21T09:58:53.580Z,102099.94
2023-01-21T10:01:43.064Z,102109.78
2023-01-21T10:05:12.155Z,102108.16
2023-01-21T10:08:02.913Z,102104.34
2023-01-21T10:10:51.570Z,102109.00
2023-01-21T10:14:08.067Z,102109.22
2023-01-21T10:17:27.862Z,102108.78
2023-01-21T10:20:31.157Z,102104.56
2023-01-21T10:23:17.156Z,102100.56
2023-01-21T10:25:50.775Z,102095.94
2023-01-21T10:28:30.569Z,102103.22
2023-01-21T10:31:28.939Z,102096.69
2023-01-21T10:33:57.319Z,102093.34
2023-01-21T10:37:03.823Z,102095.09
2023-01-21T10:40:08.686Z,102088.34
2023-01-21T10:43:19.031Z,102082.66
2023-01-21T10:46:30.627Z,102085.81
2023-01-21T10:49:50.840Z,102084.63
2023-01-21T10:52:50.655Z,102083.78
2023-01-21T10:55:53.845Z,102081.13
2023-01-21T10:58:57.975Z,102083.16
2023-01-21T11:01:37.852Z,102083.16
2023-01-21T11:04:21.764Z,102078.97
2023-01-21T11:07:17.798Z,102073.16
2023-01-21T11:09:49.339Z,102069.75
2023-01-21T11:12:22.378Z,102067.47
2023-01-21T11:14:59.580Z,102062.59
2023-01-21T11:17:37.991Z,102051.22
2023-01-21T11:20:41.477Z,102042.19
2023-01-21T11:23:35.626Z,102038.56
2023-01-21T11:26:25.464Z,102037.66
2023-01-21T11:29:20.243Z,102042.28
2023-01-21T11:32:16.014Z,102039.47
2023-01-21T11:35:04.884Z,102042.75
2023-01-21T11:37:36.111Z,102027.91
2023-01-21T11:40:26.697Z,102028.63
2023-01-21T11:42:57.485Z,102025.66
2023-01-21T11:45:36.921Z,102027.09
2023-01-21T11:48:22.906Z,102021.16
2023-01-21T11:51:07.332Z,102011.88
2023-01-21T11:53:38.402Z,102013.09
2023-01-21T11:56:08.716Z,102004.78
2023-01-21T11:58:42.849Z,101998.94
2023-01-21T12:01:22.850Z,101998.34
2023-01-21T12:04:00.711Z,101998.81
2023-01-21T12:06:32.135Z,102003.81
2023-01-21T12:09:07.930Z,101997.28
2023-01-21T12:11:38.003Z,101998.94
2023-01-21T12:14:53.792Z,101992.63
2023-01-21T12:18:37.543Z,101990.13
2023-01-21T12:22:12.991Z,101975.81
2023-01-21T12:25:23.707Z,101982.25
2023-01-21T12:28:23.242Z,101982.25
2023-01-21T12:32:01.673Z,101973.44
2023-01-21T12:34:57.447Z,101965.34
2023-01-21T12:37:55.963Z,101966.19
2023-01-21T12:41:09.170Z,101967.28
2023-01-21T12:43:58.632Z,101958.44
2023-01-21T12:46:44.561Z,101969.16
2023-01-21T12:49:32.397Z,101969.75
2023-01-21T12:52:37.220Z,101964.00
2023-01-21T12:55:39.671Z,101965.19
2023-01-21T12:58:22.429Z,101951.03
2023-01-21T13:01:00.548Z,101963.78
2023-01-21T13:03:59.768Z,101954.59
2023-01-21T13:07:05.526Z,101963.56
2023-01-21T13:10:23.656Z,101952.59
2023-01-21T13:13:24.241Z,101957.47
2023-01-21T13:16:06.187Z,101950.31
2023-01-21T13:18:50.364Z,101950.31
2023-01-21T13:22:04.972Z,101949.50
2023-01-21T13:25:21.798Z,101935.88
2023-01-21T13:28:08.005Z,101943.41
2023-01-21T13:30:57.870Z,101935.44
2023-01-21T13:34:13.321Z,101925.16
2023-01-21T13:37:17.839Z,101933.88
2023-01-21T13:40:42.795Z,101938.25
2023-01-21T13:43:44.355Z,101909.19
2023-01-21T13:46:57.518Z,101925.06
2023-01-21T13:50:35.261Z,101941.84
2023-01-21T13:53:41.810Z,101940.28
2023-01-21T13:57:02.240Z,101925.16
2023-01-21T13:59:52.221Z,101914.91
2023-01-21T14:03:07.963Z,101904.00
2023-01-21T14:06:10.718Z,101895.41
2023-01-21T14:09:33.166Z,101878.03
2023-01-21T14:13:16.802Z,101888.53
2023-01-21T14:16:16.870Z,101866.16
2023-01-21T14:19:14.108Z,101853.38
2023-01-21T14:22:52.830Z,101843.00
2023-01-21T14:25:41.306Z,101855.97
2023-01-21T14:28:22.862Z,101835.50
2023-01-21T14:31:43.824Z,101885.44
2023-01-21T14:34:38.971Z,101885.66
2023-01-21T14:37:44.073Z,101901.38
2023-01-21T14:40:30.800Z,101895.41
2023-01-21T14:43:01.571Z,101901.38
2023-01-21T14:45:51.309Z,101898.03
2023-01-21T14:48:33.042Z,101887.94
2023-01-21T14:51:05.890Z,101884.34
2023-01-21T14:53:52.538Z,101877.78
2023-01-21T14:56:33.317Z,101847.31
2023-01-21T14:59:46.459Z,101841.38
2023-01-21T15:02:47.172Z,101844.72
2023-01-21T15:05:36.044Z,101853.28
2023-01-21T15:08:28.150Z,101844.16
2023-01-21T15:11:08.647Z,101858.31
2023-01-21T15:13:42.101Z,101835.59
2023-01-21T15:16:17.953Z,101840.38
2023-01-21T15:19:31.518Z,101838.81
2023-01-21T15:22:20.306Z,101830.28
2023-01-21T15:25:14.960Z,101836.69
2023-01-21T15:28:25.774Z,101827.28
2023-01-21T15:31:05.847Z,101831.81
2023-01-21T15:34:16.168Z,101846.66
2023-01-21T15:36:57.341Z,101828.63
2023-01-21T15:39:34.207Z,101853.94
2023-01-21T15:42:48.048Z,101845.09
2023-01-21T15:46:01.307Z,101844.28
2023-01-21T15:49:27.842Z,101843.06
2023-01-21T15:52:28.735Z,101851.63
2023-01-21T15:55:01.151Z,101864.59
2023-01-21T15:58:21.872Z,101853.31
2023-01-21T16:01:26.754Z,101853.16
2023-01-21T16:04:37.921Z,101843.31
2023-01-21T16:07:53.201Z,101836.56
2023-01-21T16:11:49.466Z,101845.44
2023-01-21T16:14:37.869Z,101843.16
2023-01-21T16:17:29.956Z,101843.00
2023-01-21T16:20:07.579Z,101841.56
2023-01-21T16:22:44.213Z,101837.31
2023-01-21T16:25:22.972Z,101842.09
2023-01-21T16:27:55.857Z,101837.09
2023-01-21T16:30:32.010Z,101839.97
2023-01-21T16:33:14.900Z,101858.56
2023-01-21T16:35:51.452Z,101858.56
2023-01-21T16:38:29.898Z,101861.28
2023-01-21T16:41:08.442Z,101856.88
2023-01-21T16:43:45.793Z,101857.56
2023-01-21T16:46:39.121Z,101862.34
2023-01-21T16:49:17.747Z,101859.38
2023-01-21T16:52:20.483Z,101852.88
2023-01-21T16:54:56.157Z,101850.50
2023-01-21T16:57:32.251Z,101861.41
2023-01-21T17:00:02.749Z,101858.75
2023-01-21T17:02:34.537Z,101853.31
2023-01-21T17:05:06.102Z,101860.75
2023-01-21T17:07:47.494Z,101848.75
2023-01-21T17:10:15.732Z,101853.84
2023-01-21T17:13:16.212Z,101856.88
2023-01-21T17:16:06.988Z,101852.78
2023-01-21T17:18:55.105Z,101848.75
2023-01-21T17:21:55.495Z,101851.72
2023-01-21T17:24:44.039Z,101853.31
2023-01-21T17:27:21.996Z,101853.38
2023-01-21T17:29:52.688Z,101850.03
2023-01-21T17:32:32.347Z,101858.44
2023-01-21T17:35:15.638Z,101859.00
2023-01-21T17:37:59.916Z,101859.44
2023-01-21T17:41:03.551Z,101856.72
2023-01-21T17:43:36.173Z,101871.25
2023-01-21T17:46:12.661Z,101862.72
2023-01-21T17:48:46.718Z,101862.03
2023-01-21T17:51:29.324Z,101864.16
2023-01-21T17:54:08.971Z,101865.19
2023-01-21T17:56:48.476Z,101875.91
2023-01-21T17:59:39.120Z,101881.56
2023-01-21T18:02:16.279Z,101874.16
2023-01-21T18:04:45.793Z,101869.94
2023-01-21T18:07:32.113Z,101884.09
2023-01-21T18:10:03.436Z,101883.69
2023-01-21T18:12:33.470Z,101883.06
2023-01-21T18:15:03.790Z,101885.97
2023-01-21T18:17:34.238Z,101878.63
2023-01-21T18:20:12.334Z,101881.03
2023-01-21T18:22:42.388Z,101877.56
2023-01-21T18:25:16.273Z,101881.75
2023-01-21T18:27:54.809Z,101880.66
2023-01-21T18:30:28.908Z,101881.91
2023-01-21T18:32:58.727Z,101890.53
2023-01-21T18:35:30.535Z,101891.16
2023-01-21T18:37:59.927Z,101882.13
2023-01-21T18:40:30.067Z,101893.81
2023-01-21T18:42:59.997Z,101906.63
2023-01-21T18:45:29.995Z,101895.94
2023-01-21T18:47:58.709Z,101895.72
2023-01-21T18:50:30.493Z,101897.38
2023-01-21T18:52:58.108Z,101907.34
2023-01-21T18:55:30.001Z,101893.03
2023-01-21T18:57:58.453Z,101899.50
2023-01-21T19:00:33.899Z,101900.59
2023-01-21T19:03:01.767Z,101903.56
2023-01-21T19:05:39.086Z,101899.38
2023-01-21T19:08:29.173Z,101893.34
2023-01-21T19:10:57.849Z,101895.00
2023-01-21T19:13:27.674Z,101897.94
2023-01-21T19:15:58.573Z,101900.16
2023-01-21T19:18:28.618Z,101902.69
2023-01-21T19:20:58.391Z,101898.66
2023-01-21T19:23:28.133Z,101897.44
2023-01-21T19:25:58.725Z,101907.59
2023-01-21T19:28:29.013Z,101905.19
2023-01-21T19:30:58.829Z,101907.53
2023-01-21T19:33:28.870Z,101907.16
2023-01-21T19:36:17.353Z,101913.97
2023-01-21T19:38:56.373Z,101913.75
2023-01-21T19:41:26.435Z,101919.53
2023-01-21T19:43:56.507Z,101915.56
2023-01-21T19:46:28.927Z,101919.00
2023-01-21T19:49:12.202Z,101915.34
2023-01-21T19:51:44.812Z,101922.94
2023-01-21T19:54:14.836Z,101927.09
2023-01-21T19:56:45.380Z,101924.53
2023-01-21T19:59:16.695Z,101929.63
2023-01-21T20:01:47.162Z,101929.22
2023-01-21T20:04:17.467Z,101930.22
2023-01-21T20:06:47.911Z,101925.13
2023-01-21T20:09:19.029Z,101938.78
2023-01-21T20:11:47.808Z,101942.19
2023-01-21T20:14:17.816Z,101935.69
2023-01-21T20:16:54.773Z,101944.50
2023-01-21T20:19:24.665Z,101944.25
2023-01-21T20:22:02.121Z,101938.88
2023-01-21T20:24:33.982Z,101949.41
2023-01-21T20:27:09.325Z,101947.00
2023-01-21T20:29:49.582Z,101943.88
2023-01-21T20:32:26.364Z,101958.81
2023-01-21T20:34:56.384Z,101962.16
2023-01-21T20:37:26.200Z,101958.75
2023-01-21T20:39:56.001Z,101959.81
2023-01-21T20:42:26.277Z,101970.13
2023-01-21T20:44:55.849Z,101973.69
2023-01-21T20:47:37.674Z,101984.41
2023-01-21T20:50:35.415Z,101977.78
2023-01-21T20:53:04.465Z,101983.81
2023-01-21T20:55:34.469Z,101984.34
2023-01-21T20:58:06.075Z,101984.72
2023-01-21T21:00:36.153Z,101989.09
2023-01-21T21:03:06.939Z,101988.97
2023-01-21T21:05:37.176Z,101988.06
2023-01-21T21:08:10.813Z,101979.47
2023-01-21T21:10:40.596Z,102001.03
2023-01-21T21:13:11.983Z,101994.78
2023-01-21T21:15:45.723Z,101989.03
2023-01-21T21:18:16.498Z,101985.47
2023-01-21T21:20:46.524Z,101994.50
2023-01-21T21:23:16.541Z,101983.13
2023-01-21T21:25:48.219Z,101994.34
2023-01-21T21:28:19.173Z,101989.31
2023-01-21T21:30:48.558Z,101992.22
2023-01-21T21:33:22.267Z,101996.31
2023-01-21T21:35:52.155Z,102000.13
2023-01-21T21:38:22.012Z,102004.59
2023-01-21T21:40:53.254Z,102007.53
2023-01-21T21:43:32.408Z,102018.41
2023-01-21T21:46:31.493Z,102011.66
2023-01-21T21:49:01.564Z,102024.31
2023-01-21T21:51:31.929Z,102018.31
2023-01-21T21:54:01.944Z,102018.72
2023-01-21T21:56:31.739Z,102016.03
2023-01-21T21:59:01.724Z,102026.31
2023-01-21T22:01:32.310Z,102020.97
2023-01-21T22:04:04.778Z,102020.38
2023-01-21T22:06:34.342Z,102025.00
2023-01-21T22:09:05.155Z,102028.19
2023-01-21T22:11:34.584Z,102026.66
2023-01-21T22:14:04.789Z,102025.91
2023-01-21T22:16:35.129Z,102039.38
2023-01-21T22:19:04.944Z,102032.06
2023-01-21T22:21:35.570Z,102027.56
2023-01-21T22:24:08.155Z,102040.25
2023-01-21T22:26:38.685Z,102038.34
2023-01-21T22:29:08.641Z,102027.19
2023-01-21T22:31:37.151Z,102035.16
2023-01-21T22:34:05.459Z,102037.66
2023-01-21T22:36:34.011Z,102045.03
2023-01-21T22:39:02.857Z,102041.28
2023-01-21T22:41:31.516Z,102041.19
2023-01-21T22:43:59.354Z,102055.28
2023-01-21T22:46:30.241Z,102045.78
2023-01-21T22:49:00.148Z,102052.16
2023-01-21T22:51:28.181Z,102053.28
2023-01-21T22:53:57.131Z,102046.06
2023-01-21T22:56:44.825Z,102051.53
2023-01-21T22:59:15.954Z,102059.28
2023-01-21T23:01:44.482Z,102055.13
2023-01-21T23:04:14.955Z,102057.25
2023-01-21T23:06:44.736Z,102049.47
2023-01-21T23:09:16.145Z,102055.06
2023-01-21T23:11:46.162Z,102045.03
2023-01-21T23:14:16.617Z,102051.16
2023-01-21T23:16:47.069Z,102055.16
2023-01-21T23:19:17.064Z,102051.25
2023-01-21T23:21:46.736Z,102061.81
2023-01-21T23:24:16.620Z,102059.63
2023-01-21T23:26:46.338Z,102064.81
2023-01-21T23:29:16.016Z,102057.69
2023-01-21T23:31:46.191Z,102065.25
2023-01-21T23:34:16.293Z,102057.00
2023-01-21T23:36:46.080Z,102067.09
2023-01-21T23:39:15.999Z,102071.13
2023-01-21T23:41:45.785Z,102063.53
2023-01-21T23:44:15.636Z,102059.13
2023-01-21T23:46:45.409Z,102065.66
2023-01-21T23:49:17.949Z,102063.97
2023-01-21T23:51:48.683Z,102063.31
2023-01-21T23:54:18.857Z,102048.03
2023-01-21T23:56:48.597Z,102049.34
2023-01-21T23:59:18.595Z,102055.28
